Time;durP1;ratioP1;P1;durP2;ratioP2;P2;SDS_P1;SDS_P2;PMS_P1;PMS_P2;Temp;Humidity;BMP_temperature;BMP_pressure;BME280_temperature;BME280_humidity;BME280_pressure;Samples;Min_cycle;Max_cycle;Signal;HPM_P1;HPM_P2
2021/07/22 00:00:10;;;;;;;6.65;4.50;;;18.10;82.30;;;;;;5046804;28;20187;-76
2021/07/22 00:02:36;;;;;;;7.40;4.90;;;18.20;82.10;;;;;;5069000;28;20298;-75
2021/07/22 00:05:04;;;;;;;5.25;4.63;;;18.10;82.10;;;;;;5042863;28;20274;-75
2021/07/22 00:07:31;;;;;;;6.20;4.95;;;18.10;82.60;;;;;;5041024;28;20188;-74
2021/07/22 00:09:56;;;;;;;8.02;4.10;;;18.20;82.40;;;;;;5047291;28;20191;-76
2021/07/22 00:12:22;;;;;;;6.75;4.68;;;18.10;82.70;;;;;;5045647;28;20266;-75
2021/07/22 00:14:47;;;;;;;5.78;4.25;;;18.10;83.20;;;;;;5045640;28;20230;-76
2021/07/22 00:17:13;;;;;;;5.22;4.65;;;18.10;83.10;;;;;;5049539;28;20179;-76
2021/07/22 00:19:39;;;;;;;4.63;4.18;;;18.10;83.40;;;;;;5042362;28;20211;-76
2021/07/22 00:22:04;;;;;;;7.10;4.30;;;18.10;83.30;;;;;;5045990;28;20223;-76
2021/07/22 00:24:30;;;;;;;5.78;5.00;;;18.10;83.40;;;;;;5044351;28;20183;-76
2021/07/22 00:26:56;;;;;;;5.82;4.07;;;18.10;83.40;;;;;;5046117;28;20188;-76
2021/07/22 00:29:22;;;;;;;5.95;4.53;;;18.00;83.70;;;;;;5046433;28;20637;-76
2021/07/22 00:31:48;;;;;;;4.75;4.25;;;18.00;83.20;;;;;;5049009;28;20275;-76
2021/07/22 00:34:14;;;;;;;4.90;4.35;;;18.00;83.40;;;;;;5050300;28;20980;-76
2021/07/22 00:36:40;;;;;;;6.13;4.68;;;18.00;83.20;;;;;;5050288;28;20188;-75
2021/07/22 00:39:06;;;;;;;6.22;4.47;;;18.00;83.30;;;;;;5048074;28;20246;-76
2021/07/22 00:41:37;;;;;;;4.80;4.40;;;18.00;83.30;;;;;;5049752;28;20599;-75
2021/07/22 00:44:03;;;;;;;4.40;4.00;;;18.00;83.60;;;;;;5048501;28;20187;-76
2021/07/22 00:46:29;;;;;;;4.90;3.92;;;18.00;84.00;;;;;;5049501;28;20275;-76
2021/07/22 00:48:54;;;;;;;6.20;4.75;;;18.00;83.90;;;;;;5049463;28;20750;-76
2021/07/22 00:51:20;;;;;;;3.72;3.42;;;18.00;83.30;;;;;;5048489;28;20194;-76
2021/07/22 00:53:46;;;;;;;4.95;4.47;;;17.90;83.90;;;;;;5047491;28;20343;-76
2021/07/22 00:56:11;;;;;;;5.00;4.30;;;17.90;83.80;;;;;;5048109;28;20264;-76
2021/07/22 00:58:37;;;;;;;6.05;4.13;;;17.90;84.10;;;;;;5048960;28;20188;-76
2021/07/22 01:01:03;;;;;;;4.60;4.20;;;17.90;84.10;;;;;;5061261;28;20213;-75
2021/07/22 01:03:28;;;;;;;5.90;4.60;;;17.90;83.50;;;;;;5047914;28;20587;-76
2021/07/22 01:05:55;;;;;;;5.47;4.15;;;17.90;83.50;;;;;;5055194;28;20210;-75
2021/07/22 01:08:20;;;;;;;5.60;4.95;;;17.90;84.30;;;;;;5052883;28;20183;-76
2021/07/22 01:10:46;;;;;;;7.00;4.40;;;17.90;83.30;;;;;;5054995;28;20179;-76
2021/07/22 01:13:12;;;;;;;5.63;4.47;;;17.90;83.40;;;;;;5037948;28;20184;-76
2021/07/22 01:15:38;;;;;;;5.13;4.35;;;17.90;83.80;;;;;;5047567;28;20195;-75
2021/07/22 01:18:03;;;;;;;4.57;4.03;;;17.90;83.20;;;;;;5048079;28;20180;-75
2021/07/22 01:20:29;;;;;;;4.70;3.88;;;17.90;83.10;;;;;;5049466;28;20179;-75
2021/07/22 01:22:57;;;;;;;4.47;4.07;;;18.00;83.10;;;;;;5048578;28;20225;-76
2021/07/22 01:25:24;;;;;;;4.50;4.10;;;17.90;83.50;;;;;;5049333;28;20179;-75
2021/07/22 01:27:50;;;;;;;6.53;4.40;;;17.90;83.90;;;;;;5047506;28;20244;-76
2021/07/22 01:30:18;;;;;;;4.88;4.38;;;17.90;84.00;;;;;;5048438;28;20653;-76
2021/07/22 01:32:44;;;;;;;5.30;4.03;;;17.90;83.80;;;;;;5043363;28;20215;-76
2021/07/22 01:35:12;;;;;;;7.45;4.32;;;17.80;83.90;;;;;;5048881;28;20186;-75
2021/07/22 01:37:38;;;;;;;4.45;4.05;;;17.80;83.60;;;;;;5047113;28;20184;-75
2021/07/22 01:40:05;;;;;;;4.20;3.90;;;17.80;83.70;;;;;;5044820;28;20553;-76
2021/07/22 01:42:31;;;;;;;5.35;4.05;;;17.80;83.90;;;;;;5046274;28;20694;-76
2021/07/22 01:44:57;;;;;;;4.00;3.70;;;17.80;84.00;;;;;;5046644;28;20188;-76
2021/07/22 01:47:22;;;;;;;4.47;3.88;;;17.80;84.00;;;;;;5048705;28;20187;-76
2021/07/22 01:49:48;;;;;;;4.93;4.38;;;17.70;84.10;;;;;;5047915;28;20179;-76
2021/07/22 01:52:14;;;;;;;6.47;3.97;;;17.70;84.20;;;;;;5046872;28;20192;-76
2021/07/22 01:54:40;;;;;;;7.53;4.45;;;17.70;84.70;;;;;;5047779;28;20668;-76
2021/07/22 01:57:06;;;;;;;4.80;4.25;;;17.70;84.90;;;;;;5041633;28;20194;-76
2021/07/22 01:59:35;;;;;;;4.32;3.97;;;17.70;84.60;;;;;;5049265;28;20184;-76
2021/07/22 02:02:11;;;;;;;4.75;4.18;;;17.60;84.40;;;;;;5045494;28;20211;-76
2021/07/22 02:04:38;;;;;;;5.40;3.83;;;17.60;84.90;;;;;;5048301;28;20747;-76
2021/07/22 02:07:04;;;;;;;4.47;3.97;;;17.60;84.60;;;;;;5046571;28;20232;-76
2021/07/22 02:09:30;;;;;;;6.55;4.40;;;17.60;84.80;;;;;;5048066;28;20254;-76
2021/07/22 02:11:57;;;;;;;6.47;4.00;;;17.60;84.90;;;;;;5046083;28;20175;-76
2021/07/22 02:14:24;;;;;;;4.63;4.25;;;17.60;84.90;;;;;;5047058;28;20187;-76
2021/07/22 02:16:50;;;;;;;5.07;4.18;;;17.50;84.80;;;;;;5041282;28;20203;-76
2021/07/22 02:19:16;;;;;;;4.25;3.88;;;17.50;85.10;;;;;;5040576;28;20171;-76
2021/07/22 02:21:42;;;;;;;4.97;4.57;;;17.50;85.80;;;;;;5046880;28;20210;-76
2021/07/22 02:24:09;;;;;;;4.07;3.75;;;17.40;85.60;;;;;;5047599;28;20202;-75
2021/07/22 02:26:35;;;;;;;6.85;4.63;;;17.50;85.20;;;;;;5045847;28;20183;-75
2021/07/22 02:29:01;;;;;;;4.78;3.85;;;17.50;85.10;;;;;;5048107;28;20183;-76
2021/07/22 02:31:27;;;;;;;4.32;3.92;;;17.40;85.70;;;;;;5047137;28;20784;-76
2021/07/22 02:33:52;;;;;;;4.35;3.72;;;17.40;85.60;;;;;;5048423;28;20175;-76
2021/07/22 02:36:18;;;;;;;4.82;3.67;;;17.40;85.60;;;;;;5047766;28;20660;-76
2021/07/22 02:38:44;;;;;;;4.50;3.85;;;17.40;85.30;;;;;;5042027;28;20188;-75
2021/07/22 02:41:09;;;;;;;4.43;4.03;;;17.40;85.50;;;;;;5046607;28;20710;-75
2021/07/22 02:43:35;;;;;;;6.68;4.43;;;17.40;85.70;;;;;;5047565;28;20194;-75
2021/07/22 02:46:05;;;;;;;4.60;4.00;;;17.40;85.90;;;;;;5045732;28;20621;-75
2021/07/22 02:48:31;;;;;;;6.13;3.55;;;17.40;85.50;;;;;;5045040;28;20210;-76
2021/07/22 02:51:00;;;;;;;6.82;4.47;;;17.40;85.50;;;;;;5047201;28;20188;-75
2021/07/22 02:53:27;;;;;;;4.57;4.18;;;17.40;85.60;;;;;;5043494;28;20237;-76
2021/07/22 02:56:00;;;;;;;4.25;3.88;;;17.40;86.30;;;;;;5040415;28;20199;-76
2021/07/22 02:58:29;;;;;;;5.40;4.35;;;17.40;86.00;;;;;;5046320;28;20187;-76
2021/07/22 03:00:55;;;;;;;4.57;4.15;;;17.40;85.50;;;;;;5045702;28;20270;-76
2021/07/22 03:03:21;;;;;;;4.05;3.67;;;17.50;85.50;;;;;;5045403;28;20183;-76
2021/07/22 03:05:47;;;;;;;4.00;3.75;;;17.50;85.40;;;;;;5047332;28;20590;-76
2021/07/22 03:08:12;;;;;;;4.65;3.90;;;17.50;85.60;;;;;;5046744;28;20198;-76
2021/07/22 03:10:38;;;;;;;5.97;4.75;;;17.50;85.90;;;;;;5045755;28;20184;-76
2021/07/22 03:13:04;;;;;;;5.32;4.55;;;17.40;85.80;;;;;;5044742;28;20187;-76
2021/07/22 03:15:30;;;;;;;4.32;3.92;;;17.40;85.80;;;;;;5047999;28;20195;-76
2021/07/22 03:17:56;;;;;;;5.00;4.10;;;17.40;85.90;;;;;;5045940;28;20195;-76
2021/07/22 03:20:22;;;;;;;5.13;4.78;;;17.40;85.90;;;;;;5044921;28;20258;-76
2021/07/22 03:22:48;;;;;;;5.95;4.10;;;17.40;86.40;;;;;;5046340;28;20323;-76
2021/07/22 03:25:13;;;;;;;4.35;3.97;;;17.30;86.60;;;;;;5045157;28;20195;-76
2021/07/22 03:27:40;;;;;;;4.95;4.55;;;17.30;87.00;;;;;;5044731;28;20691;-76
2021/07/22 03:30:06;;;;;;;6.38;4.10;;;17.30;87.00;;;;;;5042524;28;20213;-77
2021/07/22 03:32:31;;;;;;;5.95;4.03;;;17.30;86.90;;;;;;5045215;28;20209;-75
2021/07/22 03:34:57;;;;;;;5.13;4.40;;;17.40;86.80;;;;;;5041970;28;20274;-76
2021/07/22 03:37:23;;;;;;;5.18;4.57;;;17.40;87.30;;;;;;5046752;28;20209;-76
2021/07/22 03:39:49;;;;;;;5.15;4.07;;;17.40;86.90;;;;;;5044795;28;20183;-76
2021/07/22 03:42:14;;;;;;;6.80;4.50;;;17.40;87.20;;;;;;5046541;28;20218;-76
2021/07/22 03:44:40;;;;;;;4.53;4.25;;;17.50;87.00;;;;;;5045220;28;20245;-76
2021/07/22 03:47:06;;;;;;;5.68;3.92;;;17.50;86.80;;;;;;5044868;28;20191;-76
2021/07/22 03:49:32;;;;;;;3.90;3.58;;;17.50;87.00;;;;;;5045178;28;20211;-75
2021/07/22 03:51:58;;;;;;;4.38;3.97;;;17.50;86.60;;;;;;5043515;28;20687;-76
2021/07/22 03:54:24;;;;;;;9.05;4.07;;;17.50;86.60;;;;;;5046197;28;20188;-75
2021/07/22 03:56:50;;;;;;;6.90;4.85;;;17.50;87.40;;;;;;5042430;28;20682;-76
2021/07/22 03:59:19;;;;;;;6.57;4.45;;;17.50;87.50;;;;;;5045249;28;20887;-76
2021/07/22 04:01:44;;;;;;;5.95;4.68;;;17.50;87.30;;;;;;5045945;28;20253;-76
2021/07/22 04:04:10;;;;;;;5.65;4.15;;;17.50;87.60;;;;;;5046782;28;20180;-76
2021/07/22 04:06:37;;;;;;;4.75;4.15;;;17.50;87.60;;;;;;5048752;28;20180;-76
2021/07/22 04:09:04;;;;;;;5.88;4.13;;;17.50;87.60;;;;;;5045684;28;20188;-76
2021/07/22 04:11:30;;;;;;;6.40;4.20;;;17.60;87.50;;;;;;5047387;28;20932;-76
2021/07/22 04:13:56;;;;;;;7.13;4.22;;;17.60;87.30;;;;;;5049940;28;20258;-75
2021/07/22 04:16:21;;;;;;;4.70;4.30;;;17.70;86.80;;;;;;5050290;28;20200;-76
2021/07/22 04:18:47;;;;;;;6.75;4.57;;;17.70;86.80;;;;;;5047795;28;20653;-76
2021/07/22 04:21:13;;;;;;;5.78;4.25;;;17.70;86.80;;;;;;5050409;28;20219;-76
2021/07/22 04:23:38;;;;;;;5.43;4.32;;;17.80;86.40;;;;;;5049551;28;20354;-76
2021/07/22 04:26:04;;;;;;;7.55;4.50;;;17.80;86.60;;;;;;5050021;28;20181;-76
2021/07/22 04:28:30;;;;;;;8.50;5.05;;;17.90;86.40;;;;;;5049530;28;20271;-76
2021/07/22 04:30:56;;;;;;;7.53;4.20;;;17.90;86.40;;;;;;5045460;28;20211;-76
2021/07/22 04:33:21;;;;;;;4.85;4.32;;;18.00;86.00;;;;;;5049687;28;20197;-76
2021/07/22 04:35:47;;;;;;;5.00;4.47;;;18.00;86.00;;;;;;5082449;28;20184;-75
2021/07/22 04:38:13;;;;;;;8.82;4.60;;;18.00;86.10;;;;;;5047804;28;20191;-76
2021/07/22 04:40:38;;;;;;;4.80;4.35;;;18.00;85.60;;;;;;5049682;28;20199;-76
2021/07/22 04:43:04;;;;;;;6.72;4.75;;;18.00;85.80;;;;;;5048175;28;20710;-76
2021/07/22 04:45:30;;;;;;;5.25;4.57;;;18.00;86.20;;;;;;5050227;28;20183;-76
2021/07/22 04:47:56;;;;;;;5.30;4.80;;;18.00;85.80;;;;;;5048072;28;20876;-76
2021/07/22 04:50:21;;;;;;;4.40;4.10;;;18.00;85.90;;;;;;5050099;28;20192;-76
2021/07/22 04:52:47;;;;;;;9.40;5.40;;;18.00;85.90;;;;;;5048799;28;20621;-79
2021/07/22 04:55:13;;;;;;;7.53;4.95;;;17.90;85.90;;;;;;5049320;28;20576;-80
2021/07/22 04:57:38;;;;;;;6.00;4.45;;;17.90;85.80;;;;;;5047312;28;20219;-80
2021/07/22 05:00:05;;;;;;;5.45;4.93;;;17.90;86.00;;;;;;5053415;28;20184;-80
2021/07/22 05:02:31;;;;;;;6.00;4.40;;;18.00;85.80;;;;;;5048156;28;20646;-80
2021/07/22 05:04:57;;;;;;;4.50;4.10;;;17.90;86.40;;;;;;5048392;28;20215;-76
2021/07/22 05:07:22;;;;;;;5.07;3.85;;;17.90;87.00;;;;;;5050495;28;20720;-75
2021/07/22 05:09:48;;;;;;;5.72;4.70;;;17.90;86.80;;;;;;5036966;28;20194;-76
2021/07/22 05:12:14;;;;;;;5.75;4.47;;;17.90;86.90;;;;;;5046183;28;20237;-76
2021/07/22 05:14:39;;;;;;;3.92;3.63;;;17.90;87.20;;;;;;5046592;28;20550;-75
2021/07/22 05:17:05;;;;;;;4.55;4.15;;;17.90;87.10;;;;;;5047889;28;20179;-75
2021/07/22 05:19:31;;;;;;;5.97;4.18;;;17.90;87.30;;;;;;5047948;28;20194;-75
2021/07/22 05:21:56;;;;;;;4.97;4.47;;;17.90;87.30;;;;;;5048523;28;20212;-75
2021/07/22 05:24:22;;;;;;;5.53;4.88;;;17.90;86.90;;;;;;5046507;28;20733;-75
2021/07/22 05:26:49;;;;;;;4.38;4.07;;;18.00;86.50;;;;;;5047829;28;20248;-74
2021/07/22 05:29:15;;;;;;;4.25;3.78;;;18.10;86.50;;;;;;5046823;28;20267;-74
2021/07/22 05:31:41;;;;;;;7.43;4.32;;;18.10;86.10;;;;;;5045894;28;20187;-74
2021/07/22 05:34:08;;;;;;;10.25;5.15;;;18.20;86.30;;;;;;5048010;28;20188;-74
2021/07/22 05:36:34;;;;;;;5.80;4.95;;;18.20;86.10;;;;;;5042741;28;20657;-74
2021/07/22 05:39:00;;;;;;;4.50;4.10;;;18.30;86.60;;;;;;5035093;28;20231;-74
2021/07/22 05:41:26;;;;;;;4.55;4.25;;;18.30;86.20;;;;;;5041929;28;20693;-74
2021/07/22 05:43:51;;;;;;;5.45;4.35;;;18.30;86.40;;;;;;5032196;28;20255;-74
2021/07/22 05:46:19;;;;;;;5.18;4.80;;;18.30;86.00;;;;;;5044572;28;21221;-73
2021/07/22 05:48:45;;;;;;;5.55;4.38;;;18.30;85.90;;;;;;5041790;28;20176;-73
2021/07/22 05:51:11;;;;;;;4.75;4.05;;;18.40;85.90;;;;;;5045254;28;20191;-74
2021/07/22 05:53:36;;;;;;;4.13;3.65;;;18.50;85.50;;;;;;5044010;28;20187;-74
2021/07/22 05:56:02;;;;;;;4.63;4.30;;;18.50;85.80;;;;;;5042894;28;20180;-74
2021/07/22 05:58:28;;;;;;;4.95;4.40;;;18.60;85.60;;;;;;5045951;28;20176;-76
2021/07/22 06:00:54;;;;;;;8.45;4.18;;;18.60;85.20;;;;;;5046215;28;20333;-76
2021/07/22 06:03:19;;;;;;;7.30;4.32;;;18.70;84.70;;;;;;5039683;28;20662;-76
2021/07/22 06:05:45;;;;;;;4.80;4.40;;;18.80;84.60;;;;;;5037332;28;20179;-77
2021/07/22 06:08:11;;;;;;;5.30;4.90;;;18.90;84.60;;;;;;5043323;28;20688;-76
2021/07/22 06:10:38;;;;;;;5.40;4.93;;;18.90;84.40;;;;;;5043423;28;20188;-77
2021/07/22 06:13:03;;;;;;;4.57;4.28;;;19.00;84.20;;;;;;5058620;28;20182;-76
2021/07/22 06:15:29;;;;;;;9.43;3.90;;;19.00;83.80;;;;;;5051484;28;20222;-76
2021/07/22 06:17:55;;;;;;;5.22;4.20;;;19.10;83.50;;;;;;5046585;28;20995;-75
2021/07/22 06:20:21;;;;;;;4.20;3.80;;;19.20;83.40;;;;;;5046767;28;20211;-76
2021/07/22 06:22:46;;;;;;;4.43;3.90;;;19.20;83.20;;;;;;5047655;28;20223;-77
2021/07/22 06:25:14;;;;;;;4.50;4.20;;;19.30;83.10;;;;;;5044809;28;20207;-77
2021/07/22 06:27:42;;;;;;;4.18;3.88;;;19.40;82.90;;;;;;5051348;28;20192;-77
2021/07/22 06:30:08;;;;;;;3.85;3.58;;;19.40;82.90;;;;;;5050388;28;20183;-77
2021/07/22 06:32:34;;;;;;;4.47;4.07;;;19.50;82.70;;;;;;5053205;28;20184;-76
2021/07/22 06:34:59;;;;;;;4.68;3.78;;;19.60;82.50;;;;;;5052850;28;20190;-77
2021/07/22 06:37:25;;;;;;;6.32;4.40;;;19.60;82.00;;;;;;5055099;28;20191;-77
2021/07/22 06:39:51;;;;;;;5.68;4.13;;;19.60;81.70;;;;;;5056235;28;20202;-77
2021/07/22 06:42:16;;;;;;;5.57;4.20;;;19.70;81.50;;;;;;5055991;28;20221;-77
2021/07/22 06:44:42;;;;;;;4.93;3.67;;;19.80;81.40;;;;;;5053761;28;20219;-76
2021/07/22 06:47:08;;;;;;;4.07;3.63;;;19.80;81.00;;;;;;5056812;28;20180;-76
2021/07/22 06:49:33;;;;;;;4.57;4.00;;;19.80;80.30;;;;;;5055709;28;20187;-76
2021/07/22 06:51:59;;;;;;;4.10;3.78;;;19.80;80.30;;;;;;5053905;28;20958;-76
2021/07/22 06:54:25;;;;;;;4.55;3.30;;;19.90;80.60;;;;;;5055589;28;20191;-76
2021/07/22 06:56:51;;;;;;;3.70;3.38;;;20.00;80.70;;;;;;5053710;28;20184;-75
2021/07/22 06:59:17;;;;;;;3.00;2.80;;;20.00;80.60;;;;;;5051471;28;20184;-76
2021/07/22 07:01:43;;;;;;;2.80;2.60;;;20.10;79.00;;;;;;5053893;28;20210;-75
2021/07/22 07:04:08;;;;;;;2.63;2.50;;;20.10;78.60;;;;;;5054581;28;20183;-76
2021/07/22 07:06:35;;;;;;;2.15;2.05;;;20.20;77.90;;;;;;5054614;28;20182;-77
2021/07/22 07:09:03;;;;;;;2.30;2.10;;;20.20;76.80;;;;;;5055549;28;20220;-76
2021/07/22 07:11:29;;;;;;;2.47;2.38;;;20.20;77.50;;;;;;5055209;28;20559;-77
2021/07/22 07:13:54;;;;;;;2.20;2.10;;;20.30;77.70;;;;;;5054203;28;20214;-77
2021/07/22 07:16:20;;;;;;;4.07;2.58;;;20.40;77.80;;;;;;5053925;28;20812;-76
2021/07/22 07:18:46;;;;;;;2.28;2.28;;;20.40;77.70;;;;;;5053734;28;20183;-77
2021/07/22 07:21:12;;;;;;;2.42;2.33;;;20.50;77.40;;;;;;5049188;28;20654;-76
2021/07/22 07:23:37;;;;;;;2.58;2.38;;;20.50;77.00;;;;;;5047106;28;20245;-76
2021/07/22 07:26:03;;;;;;;2.75;2.58;;;20.50;76.20;;;;;;5045897;28;20215;-75
2021/07/22 07:28:29;;;;;;;3.25;2.95;;;20.60;75.90;;;;;;5044385;28;20183;-77
2021/07/22 07:30:54;;;;;;;3.33;2.95;;;20.60;76.00;;;;;;5044174;28;20271;-76
2021/07/22 07:33:21;;;;;;;2.22;2.05;;;20.70;76.20;;;;;;5045388;28;20218;-76
2021/07/22 07:35:47;;;;;;;1.95;1.85;;;20.70;76.40;;;;;;5046535;28;20307;-76
2021/07/22 07:38:12;;;;;;;2.35;1.92;;;20.70;74.60;;;;;;5043972;28;20226;-76
2021/07/22 07:40:38;;;;;;;2.63;2.28;;;20.80;74.20;;;;;;5048699;28;20594;-73
2021/07/22 07:43:04;;;;;;;2.17;1.80;;;20.80;74.30;;;;;;5048260;28;20212;-74
2021/07/22 07:45:30;;;;;;;2.00;1.90;;;20.80;74.30;;;;;;5049759;28;20171;-73
2021/07/22 07:47:56;;;;;;;1.65;1.65;;;20.90;74.90;;;;;;5046372;28;20172;-73
2021/07/22 07:50:22;;;;;;;1.92;1.88;;;21.00;74.60;;;;;;5045366;28;20208;-73
2021/07/22 07:52:48;;;;;;;2.80;1.38;;;21.10;74.20;;;;;;5048852;28;20207;-73
2021/07/22 07:55:14;;;;;;;1.95;1.85;;;21.10;73.50;;;;;;5044879;28;20209;-73
2021/07/22 07:57:40;;;;;;;1.95;1.42;;;21.20;73.20;;;;;;5046521;28;20205;-74
2021/07/22 08:00:07;;;;;;;2.63;1.70;;;21.20;72.30;;;;;;5045045;28;20168;-74
2021/07/22 08:02:33;;;;;;;1.20;1.20;;;21.30;73.00;;;;;;5046196;28;20215;-74
2021/07/22 08:05:00;;;;;;;1.45;1.35;;;21.30;72.10;;;;;;5048444;28;20186;-74
2021/07/22 08:07:26;;;;;;;1.30;1.25;;;21.40;71.40;;;;;;5049780;28;20183;-73
2021/07/22 08:09:52;;;;;;;1.42;1.33;;;21.40;71.40;;;;;;5048837;28;20179;-74
2021/07/22 08:12:18;;;;;;;1.65;1.55;;;21.40;69.90;;;;;;5045488;28;20276;-75
2021/07/22 08:14:45;;;;;;;1.25;1.20;;;21.50;70.20;;;;;;5048225;28;20188;-75
2021/07/22 08:17:15;;;;;;;1.30;1.30;;;21.50;69.30;;;;;;5041549;28;20185;-75
2021/07/22 08:19:41;;;;;;;1.40;1.20;;;21.50;68.20;;;;;;5043987;28;20588;-75
2021/07/22 08:22:06;;;;;;;3.17;1.48;;;21.60;69.20;;;;;;5046978;28;20211;-75
2021/07/22 08:24:32;;;;;;;1.33;1.23;;;21.70;70.10;;;;;;5046794;28;20179;-75
2021/07/22 08:26:58;;;;;;;1.10;1.10;;;21.70;70.40;;;;;;5046593;28;20183;-75
2021/07/22 08:29:23;;;;;;;1.90;1.80;;;21.80;69.90;;;;;;5048026;28;20180;-75
2021/07/22 08:31:49;;;;;;;2.08;1.23;;;21.90;70.00;;;;;;5046817;28;20215;-75
2021/07/22 08:34:17;;;;;;;1.35;1.35;;;22.00;69.90;;;;;;5045873;28;20640;-76
2021/07/22 08:36:43;;;;;;;1.15;1.15;;;22.10;69.90;;;;;;5046363;28;20207;-74
2021/07/22 08:39:09;;;;;;;1.55;1.52;;;22.20;69.90;;;;;;5049381;28;20214;-74
2021/07/22 08:41:35;;;;;;;1.73;1.63;;;22.30;69.60;;;;;;5046598;28;20211;-74
2021/07/22 08:44:06;;;;;;;2.33;1.45;;;22.50;70.10;;;;;;5047701;28;20233;-74
2021/07/22 08:46:32;;;;;;;1.65;1.55;;;22.60;70.10;;;;;;5047089;28;20188;-74
2021/07/22 08:48:59;;;;;;;4.22;1.73;;;22.70;69.50;;;;;;5047842;28;20389;-73
2021/07/22 08:51:26;;;;;;;1.35;1.30;;;22.90;68.80;;;;;;5059286;28;20656;-74
2021/07/22 08:53:52;;;;;;;1.75;1.65;;;23.00;68.60;;;;;;5050847;28;20541;-72
2021/07/22 08:56:24;;;;;;;1.70;1.60;;;23.20;68.10;;;;;;5046979;28;20192;-73
2021/07/22 08:58:50;;;;;;;2.00;1.80;;;23.30;67.70;;;;;;5046685;28;20299;-72
2021/07/22 09:01:18;;;;;;;1.60;1.60;;;23.40;66.90;;;;;;5049048;28;20284;-72
2021/07/22 09:03:43;;;;;;;1.85;1.75;;;23.60;67.80;;;;;;5049120;28;20179;-72
2021/07/22 09:06:16;;;;;;;1.80;1.70;;;23.80;67.10;;;;;;5047591;28;20240;-72
2021/07/22 09:08:42;;;;;;;2.38;1.67;;;24.00;67.30;;;;;;5043885;28;20873;-73
2021/07/22 09:11:10;;;;;;;3.08;1.88;;;24.30;66.50;;;;;;5046828;28;20170;-73
2021/07/22 09:13:37;;;;;;;1.35;1.35;;;24.50;66.20;;;;;;5046870;28;20195;-73
2021/07/22 09:16:04;;;;;;;1.77;1.58;;;24.70;65.70;;;;;;5047926;28;20735;-74
2021/07/22 09:18:35;;;;;;;2.05;1.95;;;24.90;65.60;;;;;;5047481;28;20183;-73
2021/07/22 09:21:18;;;;;;;2.20;1.63;;;25.00;65.60;;;;;;5047258;28;20175;-74
2021/07/22 09:24:10;;;;;;;2.00;2.00;;;25.20;65.30;;;;;;5048752;28;20191;-73
2021/07/22 09:26:38;;;;;;;2.03;1.90;;;25.30;64.20;;;;;;5052175;28;20194;-74
2021/07/22 09:29:10;;;;;;;1.85;1.80;;;25.50;64.10;;;;;;5080408;28;20574;-74
2021/07/22 09:31:37;;;;;;;2.50;2.30;;;25.60;65.90;;;;;;5049066;28;20175;-74
2021/07/22 09:34:14;;;;;;;3.00;1.63;;;25.80;65.80;;;;;;5048409;28;20676;-71
2021/07/22 09:36:40;;;;;;;2.03;1.92;;;26.00;64.90;;;;;;5047281;28;20241;-75
2021/07/22 09:39:25;;;;;;;1.58;1.52;;;26.20;64.90;;;;;;5047010;28;20180;-75
2021/07/22 09:42:17;;;;;;;1.30;1.30;;;26.40;64.00;;;;;;5070542;28;20277;-73
2021/07/22 09:44:43;;;;;;;2.13;2.03;;;26.60;63.40;;;;;;5045770;28;20187;-73
2021/07/22 09:47:12;;;;;;;2.80;1.80;;;26.60;63.50;;;;;;5046793;28;20182;-74
2021/07/22 09:49:41;;;;;;;1.27;1.17;;;26.70;63.80;;;;;;5046979;28;20175;-74
2021/07/22 09:52:17;;;;;;;1.45;1.45;;;26.80;62.70;;;;;;5046860;28;20203;-74
2021/07/22 09:54:42;;;;;;;1.38;1.38;;;26.90;61.20;;;;;;5043264;28;20186;-73
2021/07/22 09:57:19;;;;;;;1.80;1.70;;;27.00;61.90;;;;;;5056960;28;20187;-73
2021/07/22 09:59:50;;;;;;;6.30;1.88;;;27.10;62.10;;;;;;5048222;28;20183;-73
2021/07/22 10:02:25;;;;;;;1.83;1.77;;;27.20;61.50;;;;;;5052221;28;20888;-73
2021/07/22 10:05:03;;;;;;;1.48;1.48;;;27.40;61.70;;;;;;5050666;28;20181;-74
2021/07/22 10:07:31;;;;;;;1.55;1.52;;;27.50;60.40;;;;;;5050996;28;20191;-74
2021/07/22 10:10:03;;;;;;;1.17;1.17;;;27.60;60.00;;;;;;5047186;28;20202;-74
2021/07/22 10:12:30;;;;;;;1.48;1.38;;;27.80;60.00;;;;;;5048225;28;20181;-73
2021/07/22 10:14:58;;;;;;;0.98;0.98;;;28.00;60.90;;;;;;5047618;28;20199;-77
2021/07/22 10:17:33;;;;;;;1.33;1.23;;;28.20;60.50;;;;;;5048088;28;20187;-73
2021/07/22 10:20:06;;;;;;;1.10;1.10;;;28.50;59.20;;;;;;5048803;28;20179;-73
2021/07/22 10:22:32;;;;;;;1.70;1.70;;;29.00;59.20;;;;;;5047929;28;20215;-74
2021/07/22 10:24:58;;;;;;;1.85;1.75;;;29.50;56.20;;;;;;5042727;28;20588;-75
2021/07/22 10:27:25;;;;;;;1.33;1.23;;;29.70;56.00;;;;;;5047758;28;20630;-74
2021/07/22 10:29:52;;;;;;;1.15;1.15;;;29.90;56.50;;;;;;5052869;28;20179;-74
2021/07/22 10:32:19;;;;;;;1.60;1.10;;;30.20;55.30;;;;;;5048270;28;20845;-75
2021/07/22 10:34:49;;;;;;;1.38;1.38;;;30.40;54.60;;;;;;5053182;28;20585;-74
2021/07/22 10:37:19;;;;;;;1.20;1.20;;;30.70;54.20;;;;;;5047656;28;20179;-74
2021/07/22 10:40:06;;;;;;;1.10;1.10;;;30.90;55.10;;;;;;5047169;28;20183;-74
2021/07/22 10:42:48;;;;;;;1.55;1.48;;;30.90;54.20;;;;;;5047527;28;20265;-74
2021/07/22 10:45:21;;;;;;;1.85;1.05;;;30.80;54.40;;;;;;5041628;28;20178;-74
2021/07/22 10:47:59;;;;;;;1.27;1.27;;;30.70;54.20;;;;;;5047832;28;20286;-74
2021/07/22 10:50:43;;;;;;;1.00;1.00;;;31.10;54.80;;;;;;5047214;28;20225;-74
2021/07/22 10:53:10;;;;;;;1.25;1.25;;;32.10;52.70;;;;;;5044127;28;20253;-74
2021/07/22 10:55:42;;;;;;;1.30;1.30;;;32.80;53.40;;;;;;5047118;28;20183;-76
2021/07/22 10:58:26;;;;;;;1.45;1.30;;;33.00;52.80;;;;;;5046512;28;20698;-73
2021/07/22 11:00:52;;;;;;;1.70;1.60;;;32.90;51.20;;;;;;5055458;28;20180;-74
2021/07/22 11:03:35;;;;;;;1.45;1.38;;;32.70;51.30;;;;;;5047066;28;20215;-73
2021/07/22 11:06:06;;;;;;;1.30;1.20;;;32.40;51.20;;;;;;5045554;28;20175;-74
2021/07/22 11:08:33;;;;;;;2.95;1.30;;;32.20;52.80;;;;;;5047029;28;20695;-74
2021/07/22 11:11:02;;;;;;;0.95;0.95;;;32.40;52.20;;;;;;5045556;28;20195;-74
2021/07/22 11:13:50;;;;;;;0.90;0.90;;;33.00;51.00;;;;;;5050100;28;20183;-73
2021/07/22 11:16:25;;;;;;;1.85;0.70;;;33.00;50.60;;;;;;5053708;28;20198;-75
2021/07/22 11:18:57;;;;;;;0.98;0.98;;;32.90;52.50;;;;;;5055031;28;20179;-75
2021/07/22 11:21:26;;;;;;;1.27;0.93;;;32.70;52.50;;;;;;5056047;28;20876;-75
2021/07/22 11:24:01;;;;;;;1.70;0.85;;;33.10;51.80;;;;;;5053968;28;20668;-75
2021/07/22 11:26:40;;;;;;;1.10;1.10;;;33.10;51.70;;;;;;5056317;28;20179;-75
2021/07/22 11:29:07;;;;;;;1.00;1.00;;;33.90;49.90;;;;;;5056025;28;20183;-75
2021/07/22 11:31:41;;;;;;;1.02;1.00;;;34.80;49.20;;;;;;5053512;28;20652;-74
2021/07/22 11:34:06;;;;;;;0.90;0.90;;;35.70;47.50;;;;;;5049848;28;20244;-74
2021/07/22 11:36:33;;;;;;;0.80;0.80;;;35.80;48.00;;;;;;5054672;28;20175;-74
2021/07/22 11:38:59;;;;;;;1.75;1.00;;;35.40;50.00;;;;;;5050165;28;20245;-74
2021/07/22 11:41:28;;;;;;;0.85;0.85;;;34.60;51.50;;;;;;5052633;28;20210;-74
2021/07/22 11:43:55;;;;;;;0.75;0.75;;;;;;;;;;5053695;28;20210;-76
2021/07/22 11:46:40;;;;;;;3.08;1.17;;;33.90;52.50;;;;;;5055831;28;20178;-74
2021/07/22 11:49:17;;;;;;;2.45;1.30;;;33.10;50.90;;;;;;5053211;28;20626;-75
2021/07/22 11:51:45;;;;;;;0.90;0.90;;;32.40;52.00;;;;;;5052195;28;20693;-73
2021/07/22 11:54:12;;;;;;;1.15;1.15;;;31.80;55.20;;;;;;5050185;28;20181;-75
2021/07/22 11:56:38;;;;;;;1.15;1.15;;;31.30;54.90;;;;;;5044519;28;20625;-76
2021/07/22 11:59:07;;;;;;;0.98;0.98;;;30.80;56.00;;;;;;5048984;28;20210;-74
2021/07/22 12:01:34;;;;;;;1.00;1.00;;;30.30;56.20;;;;;;5050567;28;20271;-76
2021/07/22 12:04:01;;;;;;;1.10;1.10;;;29.80;57.00;;;;;;5049488;28;20186;-76
2021/07/22 12:06:28;;;;;;;1.10;1.10;;;29.80;57.30;;;;;;5046249;28;20184;-75
2021/07/22 12:09:01;;;;;;;1.08;1.08;;;30.00;57.20;;;;;;5050102;28;20682;-75
2021/07/22 12:11:27;;;;;;;2.38;1.08;;;30.60;56.30;;;;;;5051651;28;20210;-76
2021/07/22 12:13:53;;;;;;;1.10;1.00;;;31.60;55.70;;;;;;5052680;28;20879;-76
2021/07/22 12:16:27;;;;;;;9.60;1.08;;;32.40;52.70;;;;;;5051649;28;20195;-76
2021/07/22 12:18:55;;;;;;;1.27;1.17;;;33.00;53.50;;;;;;5049236;28;20316;-76
2021/07/22 12:21:26;;;;;;;0.90;0.90;;;32.90;52.90;;;;;;5051160;28;20195;-76
2021/07/22 12:23:52;;;;;;;2.25;0.93;;;32.90;52.90;;;;;;5050994;28;20210;-75
2021/07/22 12:26:19;;;;;;;0.80;0.80;;;32.50;53.80;;;;;;5052660;28;20227;-75
2021/07/22 12:29:01;;;;;;;1.10;1.00;;;32.20;53.50;;;;;;5058244;28;20593;-75
2021/07/22 12:31:37;;;;;;;0.95;0.95;;;32.00;53.90;;;;;;5055232;28;20193;-75
2021/07/22 12:34:04;;;;;;;1.00;1.00;;;31.90;53.60;;;;;;5046816;28;20722;-75
2021/07/22 12:36:33;;;;;;;1.13;0.90;;;31.30;53.20;;;;;;5049415;28;20189;-76
2021/07/22 12:39:15;;;;;;;0.80;0.80;;;31.30;53.20;;;;;;5047777;28;20207;-76
2021/07/22 12:41:43;;;;;;;1.25;0.80;;;31.00;52.60;;;;;;5035649;28;20281;-76
2021/07/22 12:44:09;;;;;;;1.00;1.00;;;30.60;54.70;;;;;;5048652;28;20202;-75
2021/07/22 12:46:35;;;;;;;0.80;0.80;;;30.50;55.00;;;;;;5051916;28;20191;-76
2021/07/22 12:49:01;;;;;;;1.77;1.25;;;30.60;54.10;;;;;;5051532;28;20171;-76